createdAt,value
2023-05-14T00:00:37.150Z,73
2023-05-14T00:03:09.417Z,73
2023-05-14T00:05:40.420Z,73
2023-05-14T00:08:11.606Z,74
2023-05-14T00:10:42.197Z,75
2023-05-14T00:13:12.780Z,75
2023-05-14T00:15:43.622Z,74
2023-05-14T00:18:14.366Z,74
2023-05-14T00:20:44.830Z,75
2023-05-14T00:23:15.585Z,76
2023-05-14T00:25:46.343Z,76
2023-05-14T00:28:16.805Z,75
2023-05-14T00:30:47.495Z,74
2023-05-14T00:33:17.782Z,74
2023-05-14T00:35:48.614Z,74
2023-05-14T00:38:19.534Z,74
2023-05-14T00:40:50.206Z,75
2023-05-14T00:43:21.806Z,75
2023-05-14T00:45:52.887Z,73
2023-05-14T00:48:23.262Z,73
2023-05-14T00:50:54.074Z,74
2023-05-14T00:53:25.406Z,74
2023-05-14T00:55:56.258Z,73
2023-05-14T00:58:26.432Z,74
2023-05-14T01:00:57.350Z,74
2023-05-14T01:03:29.029Z,75
2023-05-14T01:06:00.321Z,75
2023-05-14T01:08:30.880Z,74
2023-05-14T01:11:01.358Z,76
2023-05-14T01:13:32.404Z,75
2023-05-14T01:16:03.159Z,75
2023-05-14T01:18:33.967Z,75
2023-05-14T01:21:05.109Z,77
2023-05-14T01:23:36.073Z,76
2023-05-14T01:26:07.164Z,75
2023-05-14T01:28:38.496Z,76
2023-05-14T01:31:09.337Z,75
2023-05-14T01:33:40.699Z,75
2023-05-14T01:36:11.946Z,75
2023-05-14T01:38:42.763Z,75
2023-05-14T01:41:13.583Z,75
2023-05-14T01:43:44.515Z,75
2023-05-14T01:46:15.289Z,76
2023-05-14T01:48:46.284Z,77
2023-05-14T01:51:17.113Z,76
2023-05-14T01:53:47.908Z,76
2023-05-14T01:56:18.590Z,76
2023-05-14T01:58:49.256Z,77
2023-05-14T02:01:19.843Z,76
2023-05-14T02:03:50.589Z,76
2023-05-14T02:06:21.707Z,76
2023-05-14T02:08:52.606Z,76
2023-05-14T02:11:23.250Z,76
2023-05-14T02:13:53.949Z,76
2023-05-14T02:16:24.553Z,75
2023-05-14T02:18:56.218Z,75
2023-05-14T02:21:26.740Z,75
2023-05-14T02:23:57.277Z,75
2023-05-14T02:26:27.789Z,75
2023-05-14T02:28:58.452Z,75
2023-05-14T02:31:29.275Z,74
2023-05-14T02:34:00.496Z,75
2023-05-14T02:36:32.236Z,75
2023-05-14T02:39:03.237Z,74
2023-05-14T02:41:34.302Z,73
2023-05-14T02:44:05.286Z,72
2023-05-14T02:46:35.851Z,73
2023-05-14T02:49:06.541Z,73
2023-05-14T02:51:37.161Z,73
2023-05-14T02:54:07.948Z,73
2023-05-14T02:56:38.569Z,73
2023-05-14T02:59:09.416Z,73
2023-05-14T03:01:40.305Z,71
2023-05-14T03:04:11.352Z,72
2023-05-14T03:06:42.700Z,72
2023-05-14T03:09:13.501Z,72
2023-05-14T03:11:44.361Z,72
2023-05-14T03:14:15.042Z,72
2023-05-14T03:16:46.194Z,72
2023-05-14T03:19:17.166Z,72
2023-05-14T03:21:47.618Z,71
2023-05-14T03:24:18.690Z,72
2023-05-14T03:26:49.246Z,72
2023-05-14T03:29:19.856Z,72
2023-05-14T03:31:50.744Z,72
2023-05-14T03:34:20.884Z,71
2023-05-14T03:36:51.749Z,71
2023-05-14T03:39:22.784Z,72
2023-05-14T03:41:52.980Z,71
2023-05-14T03:44:24.119Z,71
2023-05-14T03:46:55.037Z,72
2023-05-14T03:49:25.324Z,71
2023-05-14T03:51:56.729Z,71
2023-05-14T03:54:27.435Z,72
2023-05-14T03:56:58.343Z,72
2023-05-14T03:59:28.947Z,71
2023-05-14T04:01:59.985Z,72
2023-05-14T04:04:30.721Z,72
2023-05-14T04:07:01.788Z,72
2023-05-14T04:09:31.257Z,72
2023-05-14T04:12:02.202Z,73
2023-05-14T04:14:33.811Z,72
2023-05-14T04:17:04.996Z,73
2023-05-14T04:19:36.355Z,74
2023-05-14T04:22:08.016Z,74
2023-05-14T04:24:38.409Z,75
2023-05-14T04:27:08.945Z,76
2023-05-14T04:29:39.995Z,77
2023-05-14T04:32:11.044Z,78
2023-05-14T04:34:41.982Z,77
2023-05-14T04:37:13.752Z,78
2023-05-14T04:39:43.977Z,78
2023-05-14T04:42:14.875Z,79
2023-05-14T04:44:46.581Z,79
2023-05-14T04:47:17.520Z,79
2023-05-14T04:49:48.179Z,80
2023-05-14T04:52:18.743Z,80
2023-05-14T04:54:49.787Z,79
2023-05-14T04:57:20.302Z,80
2023-05-14T04:59:51.101Z,80
2023-05-14T05:02:24.683Z,80
2023-05-14T05:04:55.233Z,80
2023-05-14T05:07:25.415Z,80
2023-05-14T05:09:55.963Z,80
2023-05-14T05:12:26.985Z,80
2023-05-14T05:14:58.131Z,81
2023-05-14T05:17:28.836Z,81
2023-05-14T05:19:59.618Z,81
2023-05-14T05:22:31.151Z,81
2023-05-14T05:25:02.907Z,81
2023-05-14T05:27:33.361Z,80
2023-05-14T05:30:04.381Z,80
2023-05-14T05:32:35.065Z,81
2023-05-14T05:35:05.770Z,82
2023-05-14T05:37:36.990Z,81
2023-05-14T05:40:07.954Z,81
2023-05-14T05:42:38.617Z,81
2023-05-14T05:45:09.448Z,81
2023-05-14T05:47:40.553Z,82
2023-05-14T05:50:11.816Z,82
2023-05-14T05:52:42.985Z,81
2023-05-14T05:55:13.993Z,82
2023-05-14T05:57:45.222Z,81
2023-05-14T06:00:16.153Z,81
2023-05-14T06:02:47.100Z,81
2023-05-14T06:05:18.042Z,81
2023-05-14T06:07:48.275Z,81
2023-05-14T06:10:19.021Z,81
2023-05-14T06:12:50.126Z,82
2023-05-14T06:15:20.516Z,82
2023-05-14T06:17:51.333Z,81
2023-05-14T06:20:22.399Z,82
2023-05-14T06:22:53.393Z,81
2023-05-14T06:25:23.081Z,81
2023-05-14T06:27:54.338Z,81
2023-05-14T06:30:25.021Z,82
2023-05-14T06:32:55.469Z,81
2023-05-14T06:35:25.959Z,82
2023-05-14T06:37:56.672Z,82
2023-05-14T06:40:27.462Z,83
2023-05-14T06:42:58.042Z,82
2023-05-14T06:45:28.787Z,82
2023-05-14T06:48:00.105Z,81
2023-05-14T06:50:30.348Z,81
2023-05-14T06:53:01.755Z,81
2023-05-14T06:55:31.693Z,82
2023-05-14T06:58:02.294Z,81
2023-05-14T07:00:37.258Z,82
2023-05-14T07:03:08.171Z,81
2023-05-14T07:05:38.840Z,80
2023-05-14T07:08:09.784Z,81
2023-05-14T07:10:40.056Z,81
2023-05-14T07:13:11.111Z,81
2023-05-14T07:15:41.976Z,80
2023-05-14T07:18:12.932Z,81
2023-05-14T07:20:43.869Z,81
2023-05-14T07:23:15.163Z,81
2023-05-14T07:25:45.283Z,81
2023-05-14T07:28:16.206Z,82
2023-05-14T07:30:47.557Z,81
2023-05-14T07:33:18.437Z,81
2023-05-14T07:35:48.935Z,82
2023-05-14T07:38:19.724Z,81
2023-05-14T07:40:49.995Z,81
2023-05-14T07:43:20.332Z,81
2023-05-14T07:45:51.105Z,80
2023-05-14T07:48:22.087Z,80
2023-05-14T07:50:52.482Z,81
2023-05-14T07:53:22.770Z,80
2023-05-14T07:55:53.181Z,80
2023-05-14T07:58:23.676Z,80
2023-05-14T08:00:54.276Z,80
2023-05-14T08:03:25.143Z,80
2023-05-14T08:05:56.410Z,79
2023-05-14T08:08:26.871Z,81
2023-05-14T08:10:57.549Z,80
2023-05-14T08:13:27.818Z,80
2023-05-14T08:15:58.225Z,79
2023-05-14T08:18:28.972Z,79
2023-05-14T08:20:59.306Z,79
2023-05-14T08:23:29.951Z,79
2023-05-14T08:26:00.540Z,79
2023-05-14T08:28:30.720Z,79
2023-05-14T08:31:02.439Z,80
2023-05-14T08:33:32.828Z,80
2023-05-14T08:36:02.945Z,79
2023-05-14T08:38:33.462Z,79
2023-05-14T08:41:03.687Z,79
2023-05-14T08:43:34.456Z,79
2023-05-14T08:46:04.423Z,79
2023-05-14T08:48:35.131Z,79
2023-05-14T08:51:05.602Z,78
2023-05-14T08:53:35.987Z,79
2023-05-14T08:56:06.261Z,79
2023-05-14T08:58:36.327Z,77
2023-05-14T09:01:06.362Z,78
2023-05-14T09:03:39.477Z,78
2023-05-14T09:06:09.568Z,78
2023-05-14T09:08:39.861Z,78
2023-05-14T09:11:10.056Z,77
2023-05-14T09:13:40.353Z,77
2023-05-14T09:16:11.087Z,78
2023-05-14T09:18:41.531Z,77
2023-05-14T09:21:12.090Z,77
2023-05-14T09:23:42.828Z,76
2023-05-14T09:26:13.086Z,75
2023-05-14T09:28:43.260Z,74
2023-05-14T09:31:13.706Z,73
2023-05-14T09:33:44.038Z,74
2023-05-14T09:36:14.232Z,74
2023-05-14T09:38:44.605Z,74
2023-05-14T09:41:16.226Z,74
2023-05-14T09:43:47.039Z,74
2023-05-14T09:46:17.378Z,74
2023-05-14T09:48:48.058Z,74
2023-05-14T09:51:18.389Z,74
2023-05-14T09:53:48.620Z,73
2023-05-14T09:56:19.946Z,72
2023-05-14T09:58:50.307Z,72
2023-05-14T10:01:24.518Z,73
2023-05-14T10:03:56.147Z,73
2023-05-14T10:06:26.751Z,72
2023-05-14T10:08:57.732Z,73
2023-05-14T10:11:28.719Z,73
2023-05-14T10:13:59.403Z,73
2023-05-14T10:16:31.179Z,72
2023-05-14T10:19:01.643Z,72
2023-05-14T10:21:32.752Z,72
2023-05-14T10:24:03.657Z,72
2023-05-14T10:26:34.030Z,72
2023-05-14T10:29:04.725Z,72
2023-05-14T10:31:35.557Z,72
2023-05-14T10:34:05.897Z,72
2023-05-14T10:36:36.618Z,72
2023-05-14T10:39:06.926Z,71
2023-05-14T10:41:42.611Z,72
2023-05-14T10:46:43.812Z,71
2023-05-14T10:49:15.364Z,71
2023-05-14T10:51:47.126Z,70
2023-05-14T10:54:18.550Z,70
2023-05-14T10:56:48.818Z,70
2023-05-14T10:59:19.542Z,69
2023-05-14T11:01:49.828Z,69
2023-05-14T11:04:20.088Z,69
2023-05-14T11:06:50.352Z,69
2023-05-14T11:09:22.043Z,68
2023-05-14T11:11:52.129Z,68
2023-05-14T11:14:22.437Z,68
2023-05-14T11:16:55.039Z,67
2023-05-14T11:19:25.051Z,67
2023-05-14T11:21:55.111Z,67
2023-05-14T11:24:25.443Z,68
2023-05-14T11:26:55.947Z,67
2023-05-14T11:29:26.382Z,68
2023-05-14T11:31:57.405Z,67
2023-05-14T11:34:27.730Z,67
2023-05-14T11:36:58.704Z,67
2023-05-14T11:39:30.085Z,66
2023-05-14T11:42:00.812Z,67
2023-05-14T11:44:31.288Z,66
2023-05-14T11:47:01.605Z,66
2023-05-14T11:49:32.119Z,66
2023-05-14T11:52:02.635Z,66
2023-05-14T11:54:32.935Z,65
2023-05-14T11:57:03.666Z,65
2023-05-14T11:59:34.052Z,65
2023-05-14T12:02:04.862Z,64
2023-05-14T12:04:35.391Z,64
2023-05-14T12:07:05.772Z,64
2023-05-14T12:09:35.846Z,64
2023-05-14T12:12:06.481Z,64
2023-05-14T12:14:37.028Z,64
2023-05-14T12:17:07.757Z,64
2023-05-14T12:19:38.463Z,63
2023-05-14T12:22:09.007Z,63
2023-05-14T12:24:39.872Z,63
2023-05-14T12:27:10.594Z,63
2023-05-14T12:29:41.496Z,62
2023-05-14T12:32:12.328Z,62
2023-05-14T12:34:43.188Z,62
2023-05-14T12:37:13.893Z,63
2023-05-14T12:39:44.525Z,62
2023-05-14T12:42:15.731Z,62
2023-05-14T12:44:45.950Z,62
2023-05-14T12:47:16.588Z,63
2023-05-14T12:49:47.056Z,62
2023-05-14T12:52:25.879Z,61
2023-05-14T12:54:48.541Z,62
2023-05-14T12:57:19.035Z,61
2023-05-14T12:59:49.642Z,60
2023-05-14T13:02:20.623Z,59
2023-05-14T13:04:50.930Z,60
2023-05-14T13:07:21.404Z,60
2023-05-14T13:09:51.712Z,59
2023-05-14T13:12:22.551Z,59
2023-05-14T13:14:53.470Z,60
2023-05-14T13:17:23.969Z,60
2023-05-14T13:19:54.650Z,59
2023-05-14T13:22:25.018Z,59
2023-05-14T13:24:55.814Z,59
2023-05-14T13:27:26.362Z,59
2023-05-14T13:29:56.636Z,59
2023-05-14T13:32:27.162Z,60
2023-05-14T13:34:57.726Z,59
2023-05-14T13:37:28.244Z,59
2023-05-14T13:39:58.508Z,59
2023-05-14T13:42:29.462Z,60
2023-05-14T13:44:59.982Z,59
2023-05-14T13:47:30.529Z,61
2023-05-14T13:50:00.843Z,61
2023-05-14T13:52:31.476Z,60
2023-05-14T13:55:02.250Z,60
2023-05-14T13:57:33.667Z,60
2023-05-14T14:00:04.112Z,59
2023-05-14T14:02:34.601Z,60
2023-05-14T14:05:03.398Z,61
2023-05-14T14:07:33.798Z,61
2023-05-14T14:10:04.175Z,60
2023-05-14T14:12:34.927Z,61
2023-05-14T14:15:05.166Z,61
2023-05-14T14:17:35.596Z,61
2023-05-14T14:20:06.113Z,61
2023-05-14T14:22:36.542Z,62
2023-05-14T14:25:06.965Z,61
2023-05-14T14:27:37.303Z,60
2023-05-14T14:30:07.613Z,61
2023-05-14T14:32:37.918Z,61
2023-05-14T14:35:08.222Z,61
2023-05-14T14:37:38.676Z,61
2023-05-14T14:40:08.997Z,61
2023-05-14T14:42:40.362Z,61
2023-05-14T14:45:10.670Z,61
2023-05-14T14:47:41.569Z,61
2023-05-14T14:50:14.096Z,62
2023-05-14T14:52:45.563Z,62
2023-05-14T14:55:15.142Z,61
2023-05-14T14:57:46.330Z,61
2023-05-14T15:00:17.276Z,61
2023-05-14T15:02:50.980Z,61
2023-05-14T15:05:20.921Z,61
2023-05-14T15:07:50.658Z,61
2023-05-14T15:10:21.198Z,61
2023-05-14T15:12:52.146Z,61
2023-05-14T15:15:22.909Z,61
2023-05-14T15:17:53.280Z,61
2023-05-14T15:20:23.504Z,62
2023-05-14T15:22:54.052Z,62
2023-05-14T15:25:25.455Z,62
2023-05-14T15:27:55.739Z,62
2023-05-14T15:30:26.268Z,62
2023-05-14T15:32:56.377Z,62
2023-05-14T15:35:26.791Z,62
2023-05-14T15:37:57.054Z,62
2023-05-14T15:40:27.618Z,62
2023-05-14T15:42:57.601Z,62
2023-05-14T15:45:28.128Z,62
2023-05-14T15:47:57.390Z,62
2023-05-14T15:50:26.712Z,62
2023-05-14T15:52:56.911Z,63
2023-05-14T15:55:27.067Z,63
2023-05-14T15:57:58.117Z,63
2023-05-14T16:00:28.280Z,63
2023-05-14T16:02:58.870Z,63
2023-05-14T16:05:29.102Z,63
2023-05-14T16:07:59.421Z,63
2023-05-14T16:10:30.408Z,64
2023-05-14T16:13:01.015Z,63
2023-05-14T16:15:29.823Z,64
2023-05-14T16:18:01.289Z,64
2023-05-14T16:20:31.264Z,64
2023-05-14T16:23:01.565Z,64
2023-05-14T16:25:32.187Z,64
2023-05-14T16:28:03.534Z,64
2023-05-14T16:30:34.738Z,63
2023-05-14T16:33:05.786Z,64
2023-05-14T16:35:36.318Z,64
2023-05-14T16:38:06.998Z,65
2023-05-14T16:40:37.808Z,64
2023-05-14T16:43:08.351Z,64
2023-05-14T16:45:38.648Z,64
2023-05-14T16:48:09.798Z,64
2023-05-14T16:50:40.275Z,64
2023-05-14T16:53:10.713Z,64
2023-05-14T16:55:41.648Z,64
2023-05-14T16:58:12.651Z,64
2023-05-14T17:00:42.851Z,65
2023-05-14T17:03:12.970Z,64
2023-05-14T17:05:44.270Z,64
2023-05-14T17:08:14.504Z,65
2023-05-14T17:10:44.856Z,65
2023-05-14T17:13:15.239Z,65
2023-05-14T17:15:46.959Z,64
2023-05-14T17:18:17.437Z,64
2023-05-14T17:20:46.339Z,65
2023-05-14T17:23:16.660Z,65
2023-05-14T17:25:47.145Z,65
2023-05-14T17:28:17.286Z,65
2023-05-14T17:30:47.464Z,64
2023-05-14T17:33:23.070Z,65
2023-05-14T17:35:53.182Z,65
2023-05-14T17:40:55.212Z,66
2023-05-14T17:43:25.223Z,66
2023-05-14T17:45:58.913Z,66
2023-05-14T17:48:41.552Z,66
2023-05-14T17:51:11.682Z,66
2023-05-14T17:53:41.703Z,66
2023-05-14T17:56:16.736Z,66
2023-05-14T17:58:51.127Z,66
2023-05-14T18:01:26.540Z,67
2023-05-14T18:04:01.072Z,66
2023-05-14T18:06:32.072Z,66
2023-05-14T18:09:03.015Z,67
2023-05-14T18:11:37.596Z,66
2023-05-14T18:14:08.433Z,66
2023-05-14T18:16:36.740Z,67
2023-05-14T18:19:07.073Z,67
2023-05-14T18:21:37.467Z,67
2023-05-14T18:24:07.794Z,67
2023-05-14T18:26:38.125Z,66
2023-05-14T18:29:08.040Z,66
2023-05-14T18:31:38.183Z,67
2023-05-14T18:34:08.588Z,67
2023-05-14T18:36:38.670Z,67
2023-05-14T18:39:09.272Z,67
2023-05-14T18:41:44.940Z,67
2023-05-14T18:44:15.742Z,67
2023-05-14T18:46:46.422Z,67
2023-05-14T18:49:16.761Z,67
2023-05-14T18:51:47.353Z,67
2023-05-14T18:54:24.226Z,67
2023-05-14T18:56:54.753Z,67
2023-05-14T18:59:25.218Z,67
2023-05-14T19:02:01.090Z,67
2023-05-14T19:04:33.093Z,67
2023-05-14T19:07:00.172Z,68
2023-05-14T19:09:30.605Z,68
2023-05-14T19:12:07.513Z,68
2023-05-14T19:14:38.006Z,68
2023-05-14T19:17:08.558Z,68
2023-05-14T19:19:39.638Z,68
2023-05-14T19:22:09.943Z,68
2023-05-14T19:24:40.249Z,68
2023-05-14T19:27:11.157Z,68
2023-05-14T19:29:41.449Z,68
2023-05-14T19:32:12.016Z,68
2023-05-14T19:34:42.551Z,68
2023-05-14T19:37:13.109Z,68
2023-05-14T19:42:19.375Z,68
2023-05-14T19:44:50.106Z,68
2023-05-14T19:47:25.624Z,68
2023-05-14T19:49:57.405Z,68
2023-05-14T19:52:27.698Z,68
2023-05-14T19:54:58.086Z,68
2023-05-14T19:57:28.395Z,68
2023-05-14T20:02:35.374Z,68
2023-05-14T20:05:05.975Z,67
2023-05-14T20:07:38.311Z,68
2023-05-14T20:10:06.905Z,68
2023-05-14T20:12:37.585Z,68
2023-05-14T20:15:07.899Z,68
2023-05-14T20:17:39.892Z,68
2023-05-14T20:20:10.246Z,68
2023-05-14T20:22:40.453Z,68
2023-05-14T20:25:11.497Z,68
2023-05-14T20:27:42.365Z,68
2023-05-14T20:30:13.811Z,68
2023-05-14T20:32:43.780Z,68
2023-05-14T20:35:14.113Z,68
2023-05-14T20:37:44.664Z,68
2023-05-14T20:40:15.163Z,69
2023-05-14T20:42:45.549Z,69
2023-05-14T20:45:15.698Z,69
2023-05-14T20:47:46.418Z,68
2023-05-14T20:50:16.591Z,69
2023-05-14T20:52:47.310Z,69
2023-05-14T20:55:17.678Z,69
2023-05-14T20:57:48.667Z,69
2023-05-14T21:00:19.835Z,69
2023-05-14T21:02:50.317Z,69
2023-05-14T21:05:20.350Z,69
2023-05-14T21:07:51.285Z,68
2023-05-14T21:10:21.689Z,68
2023-05-14T21:12:52.150Z,68
2023-05-14T21:15:23.272Z,68
2023-05-14T21:17:54.170Z,68
2023-05-14T21:20:24.275Z,68
2023-05-14T21:22:55.632Z,68
2023-05-14T21:25:26.348Z,68
2023-05-14T21:27:56.988Z,68
2023-05-14T21:33:07.341Z,68
2023-05-14T21:35:40.101Z,68
2023-05-14T21:38:10.759Z,68
2023-05-14T21:40:41.504Z,68
2023-05-14T21:43:15.743Z,68
2023-05-14T21:45:48.745Z,69
2023-05-14T21:48:21.369Z,68
2023-05-14T21:50:51.955Z,69
2023-05-14T21:53:22.642Z,68
2023-05-14T21:55:53.148Z,69
2023-05-14T21:58:22.485Z,68
2023-05-14T22:03:23.741Z,69
2023-05-14T22:05:54.064Z,69
2023-05-14T22:08:28.810Z,69
2023-05-14T22:11:06.898Z,69
2023-05-14T22:13:36.849Z,69
2023-05-14T22:16:13.106Z,69
2023-05-14T22:18:41.881Z,69
2023-05-14T22:21:12.708Z,70
2023-05-14T22:23:43.717Z,70
2023-05-14T22:26:14.054Z,70
2023-05-14T22:28:45.975Z,71
2023-05-14T22:31:16.369Z,70
2023-05-14T22:33:46.783Z,71
2023-05-14T22:36:17.658Z,71
2023-05-14T22:38:48.209Z,71
2023-05-14T22:41:19.454Z,72
2023-05-14T22:43:50.262Z,71
2023-05-14T22:46:21.164Z,72
2023-05-14T22:48:51.843Z,72
2023-05-14T22:51:22.812Z,72
2023-05-14T22:53:53.793Z,72
2023-05-14T22:56:24.588Z,72
2023-05-14T22:58:55.868Z,72
2023-05-14T23:01:27.357Z,72
2023-05-14T23:03:57.923Z,71
2023-05-14T23:06:28.560Z,72
2023-05-14T23:08:59.869Z,72
2023-05-14T23:11:30.555Z,72
2023-05-14T23:14:01.261Z,72
2023-05-14T23:16:32.300Z,72
2023-05-14T23:19:04.199Z,72
2023-05-14T23:21:35.154Z,72
2023-05-14T23:24:05.516Z,72
2023-05-14T23:26:36.546Z,73
2023-05-14T23:29:07.814Z,73
2023-05-14T23:31:38.790Z,72
2023-05-14T23:34:09.996Z,72
2023-05-14T23:36:40.897Z,72
2023-05-14T23:39:12.313Z,72
2023-05-14T23:41:42.855Z,72
2023-05-14T23:44:14.186Z,72
2023-05-14T23:46:46.337Z,72
2023-05-14T23:49:16.767Z,72
2023-05-14T23:51:48.261Z,72
2023-05-14T23:54:19.082Z,72
2023-05-14T23:56:50.024Z,72
2023-05-14T23:59:21.320Z,71
